Time;durP1;ratioP1;P1;durP2;ratioP2;P2;SDS_P1;SDS_P2;PMS_P1;PMS_P2;Temp;Humidity;BMP_temperature;BMP_pressure;BME280_temperature;BME280_humidity;BME280_pressure;Samples;Min_cycle;Max_cycle;Signal;HPM_P1;HPM_P2
2022/10/13 00:01:16;;;;;;;33.78;17.40;;;;;;;;;;4945949;28;20051;-74
2022/10/13 00:03:45;;;;;;;37.50;16.63;;;;;;;;;;4945909;28;20062;-75
2022/10/13 00:06:12;;;;;;;35.97;16.27;;;;;;;;;;4967554;28;20131;-75
2022/10/13 00:08:39;;;;;;;31.70;16.02;;;;;;;;;;4966001;28;20055;-75
2022/10/13 00:11:10;;;;;;;38.40;16.63;;;;;;;;;;4966751;28;20738;-74
2022/10/13 00:13:37;;;;;;;38.33;16.95;;;;;;;;;;4965885;28;20046;-74
2022/10/13 00:16:06;;;;;;;36.00;16.50;;;;;;;;;;4965589;28;20050;-74
2022/10/13 00:18:33;;;;;;;34.08;16.10;;;;;;;;;;4947189;28;20062;-75
2022/10/13 00:21:00;;;;;;;34.03;17.05;;;;;;;;;;4951518;28;20077;-75
2022/10/13 00:23:28;;;;;;;36.90;16.90;;;;;;;;;;4950590;28;20059;-75
2022/10/13 00:25:55;;;;;;;34.00;16.73;;;;;;;;;;4946992;28;20561;-74
2022/10/13 00:28:22;;;;;;;38.53;17.73;;;;;;;;;;4944662;28;20062;-75
2022/10/13 00:30:49;;;;;;;37.78;17.58;;;;;;;;;;4944012;28;20644;-75
2022/10/13 00:33:18;;;;;;;35.75;18.20;;;;;;;;;;4965104;28;20406;-74
2022/10/13 00:35:47;;;;;;;39.85;18.98;;;;;;;;;;4947625;28;20078;-75
2022/10/13 00:38:14;;;;;;;31.05;16.85;;;;;;;;;;4946747;28;20474;-75
2022/10/13 00:40:45;;;;;;;42.35;17.67;;;;;;;;;;4947811;28;20058;-75
2022/10/13 00:43:22;;;;;;;38.03;17.45;;;;;;;;;;4948086;28;20058;-75
2022/10/13 00:45:50;;;;;;;39.95;17.33;;;;;;;;;;4949947;28;20065;-75
2022/10/13 00:48:20;;;;;;;41.83;18.98;;;;;;;;;;4964441;28;20054;-75
2022/10/13 00:50:47;;;;;;;36.22;17.40;;;;;;;;;;4948793;28;20058;-75
2022/10/13 00:53:15;;;;;;;31.85;17.77;;;;;;;;;;4966834;28;20075;-75
2022/10/13 00:55:43;;;;;;;40.65;16.83;;;;;;;;;;4962269;28;20051;-75
2022/10/13 00:58:14;;;;;;;37.53;17.17;;;;;;;;;;4966887;28;20058;-75
2022/10/13 01:00:43;;;;;;;33.47;17.15;;;;;;;;;;4965964;28;20100;-75
2022/10/13 01:03:11;;;;;;;48.72;17.92;;;;;;;;;;4949348;28;20077;-74
2022/10/13 01:05:40;;;;;;;41.55;16.88;;;;;;;;;;4946840;28;20070;-75
2022/10/13 01:08:07;;;;;;;42.45;17.88;;;;;;;;;;4947041;28;20065;-75
2022/10/13 01:10:40;;;;;;;34.88;18.42;;;;;;;;;;4965999;28;20116;-75
2022/10/13 01:13:10;;;;;;;42.78;17.30;;;;;;;;;;4963693;28;20101;-75
2022/10/13 01:15:42;;;;;;;38.70;16.98;;;;;;;;;;4962434;28;20050;-74
2022/10/13 01:18:15;;;;;;;31.83;16.88;;;;;;;;;;4946248;28;20050;-75
2022/10/13 01:20:59;;;;;;;46.33;16.80;;;;;;;;;;4966057;28;20042;-75
2022/10/13 01:23:44;;;;;;;40.30;16.13;;;;;;;;;;4945506;28;20061;-75
2022/10/13 01:26:23;;;;;;;31.05;15.63;;;;;;;;;;4965691;28;20047;-74
2022/10/13 01:29:02;;;;;;;36.67;16.20;;;;;;;;;;4946513;28;20717;-75
2022/10/13 01:31:33;;;;;;;36.58;16.48;;;;;;;;;;4966227;28;20043;-74
2022/10/13 01:34:02;;;;;;;30.67;15.52;;;;;;;;;;4949437;28;20457;-75
2022/10/13 01:36:33;;;;;;;33.22;15.25;;;;;;;;;;4959575;28;20548;-75
2022/10/13 01:39:04;;;;;;;33.20;15.82;;;;;;;;;;4960045;28;20055;-75
2022/10/13 01:41:34;;;;;;;32.78;16.23;;;;;;;;;;4936672;28;20579;-75
2022/10/13 01:44:06;;;;;;;31.80;15.82;;;;;;;;;;4947910;28;20595;-74
2022/10/13 01:46:36;;;;;;;41.85;16.45;;;;;;;;;;4962095;28;20065;-74
2022/10/13 01:49:05;;;;;;;34.33;15.98;;;;;;;;;;4947778;28;20067;-74
2022/10/13 01:51:33;;;;;;;43.00;17.15;;;;;;;;;;4962985;28;20606;-73
2022/10/13 01:54:00;;;;;;;42.53;18.35;;;;;;;;;;4966045;28;20050;-73
2022/10/13 01:56:27;;;;;;;42.70;19.38;;;;;;;;;;4946935;28;20681;-73
2022/10/13 01:58:57;;;;;;;41.08;19.50;;;;;;;;;;4965683;28;20058;-73
2022/10/13 02:01:41;;;;;;;37.35;18.20;;;;;;;;;;4948264;28;20076;-72
2022/10/13 02:04:13;;;;;;;39.78;19.75;;;;;;;;;;4948559;28;20050;-72
2022/10/13 02:06:41;;;;;;;39.88;17.75;;;;;;;;;;4958958;28;20082;-72
2022/10/13 02:09:11;;;;;;;45.50;23.40;;;;;;;;;;4966310;28;20047;-72
2022/10/13 02:11:40;;;;;;;52.58;22.35;;;;;;;;;;4963559;28;20066;-72
2022/10/13 02:14:10;;;;;;;51.00;22.25;;;;;;;;;;4965275;28;20129;-72
2022/10/13 02:16:40;;;;;;;53.90;20.80;;;;;;;;;;4964554;28;20051;-72
2022/10/13 02:19:08;;;;;;;45.38;20.30;;;;;;;;;;4965091;28;20062;-72
2022/10/13 02:21:36;;;;;;;44.33;20.92;;;;;;;;;;4963984;28;20067;-72
2022/10/13 02:24:04;;;;;;;49.47;20.98;;;;;;;;;;4964866;28;20544;-72
2022/10/13 02:26:31;;;;;;;38.22;18.58;;;;;;;;;;4965307;28;20050;-72
2022/10/13 02:28:58;;;;;;;39.30;20.27;;;;;;;;;;4946929;28;20138;-72
2022/10/13 02:31:26;;;;;;;58.65;24.73;;;;;;;;;;4947744;28;20085;-72
2022/10/13 02:33:54;;;;;;;57.17;25.38;;;;;;;;;;4964863;28;20105;-71
2022/10/13 02:36:21;;;;;;;39.58;20.58;;;;;;;;;;4964899;28;20196;-71
2022/10/13 02:38:49;;;;;;;42.83;22.55;;;;;;;;;;4964746;28;20054;-70
2022/10/13 02:41:16;;;;;;;51.15;22.30;;;;;;;;;;4965132;28;20053;-70
2022/10/13 02:43:43;;;;;;;51.88;22.85;;;;;;;;;;4968884;28;20065;-70
2022/10/13 02:46:10;;;;;;;55.50;25.38;;;;;;;;;;4951188;28;20051;-70
2022/10/13 02:48:37;;;;;;;53.30;23.02;;;;;;;;;;4966169;28;20061;-70
2022/10/13 02:51:06;;;;;;;66.68;27.85;;;;;;;;;;4969141;28;20512;-70
2022/10/13 02:53:33;;;;;;;48.20;22.17;;;;;;;;;;4963896;28;20054;-70
2022/10/13 02:56:00;;;;;;;39.22;21.05;;;;;;;;;;4968608;28;20050;-70
2022/10/13 02:58:28;;;;;;;52.25;24.30;;;;;;;;;;4968937;28;20051;-70
2022/10/13 03:00:55;;;;;;;44.28;21.42;;;;;;;;;;4953992;28;20070;-70
2022/10/13 03:03:22;;;;;;;37.47;19.80;;;;;;;;;;4967768;28;20060;-69
2022/10/13 03:05:49;;;;;;;69.30;27.02;;;;;;;;;;4967830;28;20457;-70
2022/10/13 03:08:18;;;;;;;39.85;19.70;;;;;;;;;;4966625;28;20051;-70
2022/10/13 03:10:45;;;;;;;43.75;21.65;;;;;;;;;;4965162;28;20078;-69
2022/10/13 03:13:12;;;;;;;51.47;21.55;;;;;;;;;;4964629;28;20047;-69
2022/10/13 03:15:39;;;;;;;65.40;26.35;;;;;;;;;;4967289;28;20051;-69
2022/10/13 03:18:07;;;;;;;45.53;22.80;;;;;;;;;;4967743;28;20050;-70
2022/10/13 03:20:34;;;;;;;43.95;19.40;;;;;;;;;;4968313;28;20642;-70
2022/10/13 03:23:02;;;;;;;79.60;29.58;;;;;;;;;;4967441;28;20051;-69
2022/10/13 03:25:31;;;;;;;50.72;25.13;;;;;;;;;;4964441;28;20062;-69
2022/10/13 03:27:58;;;;;;;63.63;26.77;;;;;;;;;;4965429;28;20062;-70
2022/10/13 03:30:26;;;;;;;44.15;21.27;;;;;;;;;;4964387;28;20066;-69
2022/10/13 03:32:53;;;;;;;71.18;25.15;;;;;;;;;;4954713;28;20193;-69
2022/10/13 03:35:20;;;;;;;40.45;20.55;;;;;;;;;;4965010;28;20054;-70
2022/10/13 03:37:48;;;;;;;49.97;21.85;;;;;;;;;;4967389;28;20490;-70
2022/10/13 03:40:15;;;;;;;53.75;23.88;;;;;;;;;;4963754;28;20671;-69
2022/10/13 03:42:44;;;;;;;62.22;23.52;;;;;;;;;;4967559;28;20058;-70
2022/10/13 03:45:11;;;;;;;54.72;24.23;;;;;;;;;;4968053;28;20054;-70
2022/10/13 03:47:39;;;;;;;54.28;25.05;;;;;;;;;;4966761;28;20053;-70
2022/10/13 03:50:06;;;;;;;48.85;24.42;;;;;;;;;;4967264;28;20046;-70
2022/10/13 03:52:33;;;;;;;47.50;23.17;;;;;;;;;;4962831;28;20066;-70
2022/10/13 03:55:01;;;;;;;55.55;26.15;;;;;;;;;;4949941;28;20068;-70
2022/10/13 03:57:28;;;;;;;48.22;25.65;;;;;;;;;;4967742;28;20046;-70
2022/10/13 03:59:57;;;;;;;52.42;24.17;;;;;;;;;;4966791;28;20138;-70
2022/10/13 04:02:24;;;;;;;47.75;23.63;;;;;;;;;;4967805;28;20509;-70
2022/10/13 04:04:51;;;;;;;47.85;23.80;;;;;;;;;;4965979;28;20080;-69
2022/10/13 04:07:19;;;;;;;69.10;27.33;;;;;;;;;;4963923;28;20061;-69
2022/10/13 04:09:46;;;;;;;61.95;26.08;;;;;;;;;;4966821;28;20560;-69
2022/10/13 04:12:13;;;;;;;50.60;25.77;;;;;;;;;;4945623;28;20086;-69
2022/10/13 04:14:41;;;;;;;46.63;24.15;;;;;;;;;;4967496;28;20070;-69
2022/10/13 04:17:09;;;;;;;52.28;26.30;;;;;;;;;;4968057;28;20077;-69
2022/10/13 04:19:36;;;;;;;44.67;23.45;;;;;;;;;;4964937;28;20445;-69
2022/10/13 04:22:04;;;;;;;42.08;23.52;;;;;;;;;;4967990;28;20055;-69
2022/10/13 04:24:31;;;;;;;72.18;29.83;;;;;;;;;;4949678;28;20059;-69
2022/10/13 04:26:58;;;;;;;54.13;24.42;;;;;;;;;;4967166;28;20059;-69
2022/10/13 04:29:25;;;;;;;54.58;26.65;;;;;;;;;;4961877;28;20110;-69
2022/10/13 04:31:53;;;;;;;57.95;26.60;;;;;;;;;;4963477;28;20051;-69
2022/10/13 04:34:21;;;;;;;68.97;28.05;;;;;;;;;;4966398;28;20061;-69
2022/10/13 04:36:50;;;;;;;54.63;26.85;;;;;;;;;;4966616;28;20489;-68
2022/10/13 04:39:18;;;;;;;59.03;27.52;;;;;;;;;;4966305;28;20047;-68
2022/10/13 04:41:45;;;;;;;105.75;33.08;;;;;;;;;;4948963;28;20142;-67
2022/10/13 04:44:12;;;;;;;97.13;31.70;;;;;;;;;;4964423;28;20051;-68
2022/10/13 04:46:39;;;;;;;85.25;32.58;;;;;;;;;;4963385;28;20127;-67
2022/10/13 04:49:07;;;;;;;60.55;29.35;;;;;;;;;;4965680;28;20042;-67
2022/10/13 04:51:35;;;;;;;68.25;30.63;;;;;;;;;;4966558;28;20054;-67
2022/10/13 04:54:04;;;;;;;94.93;34.45;;;;;;;;;;4966010;28;20403;-67
2022/10/13 04:56:32;;;;;;;84.45;33.72;;;;;;;;;;4966776;28;20137;-67
2022/10/13 04:58:59;;;;;;;61.33;31.10;;;;;;;;;;4966536;28;20047;-67
2022/10/13 05:01:27;;;;;;;72.88;32.58;;;;;;;;;;4965788;28;20813;-67
2022/10/13 05:03:54;;;;;;;66.78;30.90;;;;;;;;;;4941005;28;20081;-67
2022/10/13 05:06:22;;;;;;;68.85;31.55;;;;;;;;;;4965777;28;20058;-68
2022/10/13 05:08:51;;;;;;;62.13;31.35;;;;;;;;;;4950459;28;20047;-69
2022/10/13 05:11:19;;;;;;;58.60;27.63;;;;;;;;;;4966198;28;20062;-68
2022/10/13 05:13:46;;;;;;;55.35;27.02;;;;;;;;;;4964328;28;20055;-68
2022/10/13 05:16:15;;;;;;;53.97;26.27;;;;;;;;;;4949264;28;20062;-68
2022/10/13 05:18:42;;;;;;;57.75;27.65;;;;;;;;;;4965709;28;20129;-68
2022/10/13 05:21:10;;;;;;;67.65;31.08;;;;;;;;;;4965378;28;20046;-68
2022/10/13 05:23:37;;;;;;;68.43;29.60;;;;;;;;;;4949106;28;20059;-68
2022/10/13 05:26:07;;;;;;;52.45;28.02;;;;;;;;;;4964743;28;20077;-68
2022/10/13 05:28:34;;;;;;;62.08;28.80;;;;;;;;;;4965574;28;20414;-68
2022/10/13 05:31:09;;;;;;;110.15;35.85;;;;;;;;;;4964992;28;20815;-67
2022/10/13 05:33:36;;;;;;;62.03;30.52;;;;;;;;;;4962390;28;20062;-68
2022/10/13 05:36:04;;;;;;;66.30;32.13;;;;;;;;;;4937849;28;20042;-68
2022/10/13 05:38:32;;;;;;;63.83;31.83;;;;;;;;;;4966696;28;20058;-68
2022/10/13 05:41:02;;;;;;;93.57;35.33;;;;;;;;;;4957461;28;20080;-68
2022/10/13 05:43:30;;;;;;;80.50;35.05;;;;;;;;;;4956448;28;20043;-68
2022/10/13 05:45:58;;;;;;;64.43;32.72;;;;;;;;;;4965090;28;20402;-68
2022/10/13 05:48:25;;;;;;;133.13;41.95;;;;;;;;;;4966515;28;20117;-67
2022/10/13 05:50:52;;;;;;;147.05;42.08;;;;;;;;;;4960794;28;20058;-68
2022/10/13 05:53:20;;;;;;;125.20;39.25;;;;;;;;;;4955956;28;20127;-68
2022/10/13 05:55:47;;;;;;;91.22;37.13;;;;;;;;;;4955068;28;20046;-67
2022/10/13 05:58:14;;;;;;;66.10;34.08;;;;;;;;;;4945379;28;20055;-68
2022/10/13 06:00:43;;;;;;;75.85;34.83;;;;;;;;;;4962153;28;20058;-68
2022/10/13 06:03:12;;;;;;;70.47;33.15;;;;;;;;;;4966451;28;20520;-67
2022/10/13 06:05:41;;;;;;;77.78;35.28;;;;;;;;;;4963741;28;20796;-68
2022/10/13 06:08:09;;;;;;;73.20;33.80;;;;;;;;;;4966028;28;20087;-68
2022/10/13 06:10:37;;;;;;;107.75;38.13;;;;;;;;;;4963470;28;20050;-68
2022/10/13 06:13:04;;;;;;;84.93;36.13;;;;;;;;;;4946220;28;20584;-68
2022/10/13 06:15:31;;;;;;;89.90;37.50;;;;;;;;;;4966433;28;20050;-68
2022/10/13 06:18:00;;;;;;;73.43;34.58;;;;;;;;;;4968269;28;20058;-67
2022/10/13 06:20:27;;;;;;;99.07;39.10;;;;;;;;;;4969338;28;20405;-68
2022/10/13 06:22:55;;;;;;;67.13;33.00;;;;;;;;;;4968544;28;20051;-67
2022/10/13 06:25:22;;;;;;;96.72;37.25;;;;;;;;;;4969199;28;20509;-68
2022/10/13 06:27:49;;;;;;;71.32;33.70;;;;;;;;;;4968538;28;20062;-67
2022/10/13 06:30:17;;;;;;;81.90;35.33;;;;;;;;;;4968307;28;20053;-68
2022/10/13 06:32:44;;;;;;;73.82;33.33;;;;;;;;;;4962552;28;20054;-68
2022/10/13 06:35:13;;;;;;;65.40;32.25;;;;;;;;;;4968606;28;20058;-68
2022/10/13 06:37:40;;;;;;;68.63;32.90;;;;;;;;;;4968844;28;20178;-68
2022/10/13 06:40:08;;;;;;;80.35;33.55;;;;;;;;;;4962715;28;20043;-67
2022/10/13 06:42:35;;;;;;;87.13;35.28;;;;;;;;;;4966860;28;20051;-68
2022/10/13 06:45:03;;;;;;;72.20;32.75;;;;;;;;;;4969781;28;20061;-68
2022/10/13 06:47:30;;;;;;;82.40;35.38;;;;;;;;;;4968192;28;20050;-68
2022/10/13 06:49:57;;;;;;;94.35;36.85;;;;;;;;;;4968924;28;20062;-68
2022/10/13 06:52:26;;;;;;;74.38;34.47;;;;;;;;;;4965647;28;20059;-68
2022/10/13 06:54:53;;;;;;;77.80;34.60;;;;;;;;;;4964979;28;20510;-68
2022/10/13 06:57:20;;;;;;;80.82;35.80;;;;;;;;;;4965495;28;20165;-68
2022/10/13 06:59:48;;;;;;;65.10;32.95;;;;;;;;;;4950141;28;20046;-68
2022/10/13 07:02:15;;;;;;;75.78;33.85;;;;;;;;;;4968459;28;20051;-68
2022/10/13 07:04:42;;;;;;;86.00;37.03;;;;;;;;;;4967602;28;20054;-68
2022/10/13 07:07:09;;;;;;;74.43;33.28;;;;;;;;;;4968725;28;20050;-68
2022/10/13 07:09:38;;;;;;;89.18;36.83;;;;;;;;;;4952089;28;20150;-68
2022/10/13 07:12:06;;;;;;;89.85;38.60;;;;;;;;;;4962692;28;20118;-68
2022/10/13 07:14:33;;;;;;;87.55;38.10;;;;;;;;;;4968437;28;20129;-67
2022/10/13 07:17:00;;;;;;;80.88;37.72;;;;;;;;;;4968201;28;20045;-68
2022/10/13 07:19:28;;;;;;;88.63;40.90;;;;;;;;;;4966969;28;20505;-67
2022/10/13 07:21:55;;;;;;;84.70;40.30;;;;;;;;;;4968052;28;20051;-68
2022/10/13 07:24:22;;;;;;;94.03;42.05;;;;;;;;;;4962057;28;20062;-68
2022/10/13 07:26:51;;;;;;;98.20;42.35;;;;;;;;;;4967274;28;20410;-68
2022/10/13 07:29:18;;;;;;;99.43;42.95;;;;;;;;;;4965457;28;20112;-68
2022/10/13 07:31:46;;;;;;;101.30;44.83;;;;;;;;;;4966846;28;20046;-68
2022/10/13 07:34:13;;;;;;;106.95;43.10;;;;;;;;;;4967827;28;20070;-68
2022/10/13 07:36:41;;;;;;;105.95;44.85;;;;;;;;;;4959015;28;20826;-68
2022/10/13 07:39:08;;;;;;;108.85;45.88;;;;;;;;;;4959791;28;20053;-68
2022/10/13 07:41:35;;;;;;;110.68;45.00;;;;;;;;;;4957187;28;20054;-68
2022/10/13 07:44:04;;;;;;;126.30;48.22;;;;;;;;;;4966054;28;20133;-68
2022/10/13 07:46:31;;;;;;;116.47;47.47;;;;;;;;;;4960150;28;20556;-68
2022/10/13 07:48:59;;;;;;;137.43;49.75;;;;;;;;;;4960377;28;20602;-68
2022/10/13 07:51:26;;;;;;;128.90;49.58;;;;;;;;;;4949138;28;20090;-67
2022/10/13 07:53:53;;;;;;;131.02;50.03;;;;;;;;;;4965557;28;20047;-68
2022/10/13 07:56:20;;;;;;;126.07;49.75;;;;;;;;;;4967972;28;20062;-67
2022/10/13 07:58:48;;;;;;;130.80;50.08;;;;;;;;;;4966844;28;20045;-68
2022/10/13 08:01:17;;;;;;;137.43;51.60;;;;;;;;;;4963804;28;20047;-69
2022/10/13 08:03:45;;;;;;;143.40;51.60;;;;;;;;;;4964392;28;20050;-68
2022/10/13 08:06:14;;;;;;;126.65;47.65;;;;;;;;;;4967430;28;20246;-68
2022/10/13 08:08:41;;;;;;;121.13;47.22;;;;;;;;;;4966305;28;20409;-68
2022/10/13 08:11:09;;;;;;;145.15;51.65;;;;;;;;;;4968099;28;20133;-68
2022/10/13 08:13:37;;;;;;;141.18;51.20;;;;;;;;;;4965785;28;20379;-68
2022/10/13 08:16:04;;;;;;;120.00;47.22;;;;;;;;;;4949595;28;20058;-68
2022/10/13 08:18:33;;;;;;;112.28;47.45;;;;;;;;;;4967589;28;20050;-68
2022/10/13 08:21:01;;;;;;;115.55;46.95;;;;;;;;;;4967180;28;20077;-69
2022/10/13 08:23:28;;;;;;;110.35;45.90;;;;;;;;;;4967368;28;20054;-68
2022/10/13 08:25:55;;;;;;;113.00;47.22;;;;;;;;;;4966075;28;20492;-68
2022/10/13 08:28:24;;;;;;;114.90;46.38;;;;;;;;;;4967462;28;20066;-68
2022/10/13 08:30:52;;;;;;;115.40;46.83;;;;;;;;;;4962230;28;20502;-69
2022/10/13 08:33:20;;;;;;;103.90;43.65;;;;;;;;;;4964539;28;20417;-68
2022/10/13 08:35:49;;;;;;;117.82;46.72;;;;;;;;;;4961892;28;20046;-68
2022/10/13 08:38:16;;;;;;;111.05;43.85;;;;;;;;;;4964932;28;20498;-69
2022/10/13 08:40:47;;;;;;;102.82;41.55;;;;;;;;;;4949673;28;20517;-69
2022/10/13 08:43:16;;;;;;;126.13;45.88;;;;;;;;;;4962149;28;20057;-68
2022/10/13 08:45:43;;;;;;;110.45;42.53;;;;;;;;;;4965645;28;20043;-68
2022/10/13 08:48:13;;;;;;;93.47;40.83;;;;;;;;;;4965521;28;20050;-68
2022/10/13 08:50:41;;;;;;;90.32;39.88;;;;;;;;;;4963913;28;20062;-69
2022/10/13 08:53:15;;;;;;;101.22;41.55;;;;;;;;;;4947051;28;20072;-69
2022/10/13 08:55:43;;;;;;;85.43;38.80;;;;;;;;;;4962089;28;20062;-68
2022/10/13 08:58:23;;;;;;;84.10;39.13;;;;;;;;;;4964080;28;20059;-68
2022/10/13 09:00:52;;;;;;;100.47;40.33;;;;;;;;;;4964562;28;20058;-68
2022/10/13 09:03:23;;;;;;;103.00;41.75;;;;;;;;;;4965750;28;20158;-68
2022/10/13 09:05:57;;;;;;;84.47;38.47;;;;;;;;;;4962979;28;20047;-69
2022/10/13 09:08:27;;;;;;;99.90;41.40;;;;;;;;;;4960472;28;20062;-69
2022/10/13 09:10:54;;;;;;;83.95;39.47;;;;;;;;;;4963165;28;20081;-68
2022/10/13 09:13:22;;;;;;;85.45;38.38;;;;;;;;;;4946842;28;20069;-68
2022/10/13 09:15:50;;;;;;;81.13;38.13;;;;;;;;;;4964209;28;20537;-69
2022/10/13 09:18:17;;;;;;;73.47;35.42;;;;;;;;;;4965520;28;20551;-68
2022/10/13 09:20:44;;;;;;;77.50;36.20;;;;;;;;;;4963189;28;20066;-68
2022/10/13 09:23:18;;;;;;;107.18;40.92;;;;;;;;;;4962747;28;20140;-68
2022/10/13 09:25:45;;;;;;;;;;;;;;;;;;4965448;28;20051;-68
2022/10/13 09:28:17;;;;;;;88.50;37.92;;;;;;;;;;4963972;28;19926;-68
2022/10/13 09:30:46;;;;;;;87.22;37.13;;;;;;;;;;4965555;28;20429;-68
2022/10/13 09:33:19;;;;;;;87.88;37.67;;;;;;;;;;4965265;28;20047;-68
2022/10/13 09:35:48;;;;;;;99.78;38.58;;;;;;;;;;4965792;28;20078;-68
2022/10/13 09:38:16;;;;;;;105.32;39.63;;;;;;;;;;4960782;28;20129;-69
2022/10/13 09:40:44;;;;;;;87.82;37.05;;;;;;;;;;4954244;28;20058;-68
2022/10/13 09:43:27;;;;;;;86.10;37.22;;;;;;;;;;4954460;28;20091;-69
2022/10/13 09:45:54;;;;;;;80.70;36.05;;;;;;;;;;4961513;28;20070;-68
2022/10/13 09:48:23;;;;;;;91.20;37.33;;;;;;;;;;4965624;28;20054;-69
2022/10/13 09:50:52;;;;;;;82.38;35.75;;;;;;;;;;4966590;28;20047;-69
2022/10/13 09:53:24;;;;;;;85.43;36.38;;;;;;;;;;4955763;28;20062;-69
2022/10/13 09:56:07;;;;;;;154.23;42.42;;;;;;;;;;4961226;28;20046;-70
2022/10/13 09:58:37;;;;;;;67.50;32.03;;;;;;;;;;4969591;28;20051;-69
2022/10/13 10:01:05;;;;;;;70.88;33.28;;;;;;;;;;4968444;28;20070;-69
2022/10/13 10:03:34;;;;;;;59.28;31.48;;;;;;;;;;4968650;28;20066;-68
2022/10/13 10:06:02;;;;;;;61.83;29.90;;;;;;;;;;4965948;28;20062;-69
2022/10/13 10:08:32;;;;;;;65.82;31.88;;;;;;;;;;4964867;28;20050;-69
2022/10/13 10:11:01;;;;;;;67.55;32.17;;;;;;;;;;4965928;28;20058;-68
2022/10/13 10:13:28;;;;;;;67.70;31.50;;;;;;;;;;4969163;28;21210;-69
2022/10/13 10:15:59;;;;;;;71.32;31.85;;;;;;;;;;4969058;28;20133;-69
2022/10/13 10:18:32;;;;;;;61.92;30.60;;;;;;;;;;4969080;28;20514;-68
2022/10/13 10:21:02;;;;;;;73.97;34.30;;;;;;;;;;4953587;28;20051;-69
2022/10/13 10:23:33;;;;;;;68.53;32.78;;;;;;;;;;4968868;28;20050;-68
2022/10/13 10:26:02;;;;;;;71.95;32.80;;;;;;;;;;4967472;28;20552;-68
2022/10/13 10:28:43;;;;;;;107.47;38.35;;;;;;;;;;4968386;28;20047;-68
2022/10/13 10:31:17;;;;;;;70.97;32.10;;;;;;;;;;4966609;28;20046;-69
2022/10/13 10:33:49;;;;;;;59.47;28.30;;;;;;;;;;4963813;28;20052;-68
2022/10/13 10:36:20;;;;;;;62.28;26.75;;;;;;;;;;4968858;28;20469;-68
2022/10/13 10:38:51;;;;;;;51.15;24.38;;;;;;;;;;4963552;28;20160;-68
2022/10/13 10:41:26;;;;;;;46.70;21.67;;;;;;;;;;4944485;28;20062;-69
2022/10/13 10:43:55;;;;;;;54.10;18.75;;;;;;;;;;4965628;28;20114;-68
2022/10/13 10:46:26;;;;;;;30.92;14.88;;;;;;;;;;4970017;28;20054;-68
2022/10/13 10:48:55;;;;;;;33.40;15.05;;;;;;;;;;4961616;28;20053;-69
2022/10/13 10:51:23;;;;;;;33.60;13.18;;;;;;;;;;4965714;28;20051;-69
2022/10/13 10:53:57;;;;;;;29.77;12.48;;;;;;;;;;4968368;28;20463;-69
2022/10/13 10:56:29;;;;;;;30.00;13.48;;;;;;;;;;4965766;28;20050;-68
2022/10/13 10:59:03;;;;;;;21.35;10.95;;;;;;;;;;4949355;28;20054;-68
2022/10/13 11:01:35;;;;;;;16.90;8.90;;;;;;;;;;4951126;28;20086;-68
2022/10/13 11:04:17;;;;;;;21.92;8.52;;;;;;;;;;4965250;28;20054;-69
2022/10/13 11:06:45;;;;;;;22.30;8.90;;;;;;;;;;4967690;28;20085;-68
2022/10/13 11:09:12;;;;;;;21.25;8.57;;;;;;;;;;4964727;28;20102;-68
2022/10/13 11:11:41;;;;;;;21.02;7.95;;;;;;;;;;4965238;28;20053;-68
2022/10/13 11:14:25;;;;;;;18.08;7.18;;;;;;;;;;4964641;28;20126;-68
2022/10/13 11:17:10;;;;;;;17.88;6.57;;;;;;;;;;4966594;28;20489;-68
2022/10/13 11:19:38;;;;;;;18.02;6.22;;;;;;;;;;4967834;28;20082;-68
2022/10/13 11:22:23;;;;;;;15.05;7.07;;;;;;;;;;4969295;28;20078;-68
2022/10/13 11:24:59;;;;;;;22.70;6.63;;;;;;;;;;4966487;28;20069;-68
2022/10/13 11:27:41;;;;;;;15.32;5.47;;;;;;;;;;4968392;28;20071;-68
2022/10/13 11:30:27;;;;;;;17.98;6.63;;;;;;;;;;4965009;28;20477;-69
2022/10/13 11:32:55;;;;;;;20.48;6.72;;;;;;;;;;4962750;28;20077;-68
2022/10/13 11:35:24;;;;;;;13.93;4.85;;;;;;;;;;4967951;28;20433;-68
2022/10/13 11:37:57;;;;;;;12.23;4.15;;;;;;;;;;4967474;28;20051;-68
2022/10/13 11:40:24;;;;;;;11.63;3.95;;;;;;;;;;4967708;28;20043;-69
2022/10/13 11:43:07;;;;;;;15.38;3.80;;;;;;;;;;4966730;28;20050;-68
2022/10/13 11:45:49;;;;;;;15.35;3.90;;;;;;;;;;4961645;28;20046;-68
2022/10/13 11:48:33;;;;;;;14.80;4.68;;;;;;;;;;4926009;28;20525;-68
2022/10/13 11:51:06;;;;;;;10.60;3.00;;;;;;;;;;4956872;28;20065;-68
2022/10/13 11:53:34;;;;;;;9.75;2.88;;;;;;;;;;4962752;28;20097;-68
2022/10/13 11:56:02;;;;;;;12.07;2.90;;;;;;;;;;4958146;28;20059;-68
2022/10/13 11:58:30;;;;;;;18.30;2.95;;;;;;;;;;4964807;28;20055;-69
2022/10/13 12:00:58;;;;;;;7.38;2.55;;;;;;;;;;4946064;28;20073;-68
2022/10/13 12:03:31;;;;;;;11.75;2.40;;;;;;;;;;4967172;28;20066;-68
2022/10/13 12:06:00;;;;;;;8.20;1.88;;;;;;;;;;4958527;28;20494;-69
2022/10/13 12:08:28;;;;;;;7.05;1.70;;;;;;;;;;4961824;28;20043;-69
2022/10/13 12:10:57;;;;;;;16.33;1.77;;;;;;;;;;4964100;28;20061;-69
2022/10/13 12:13:26;;;;;;;5.05;1.30;;;;;;;;;;4964256;28;20055;-68
2022/10/13 12:16:02;;;;;;;6.38;1.58;;;;;;;;;;4967037;28;20418;-68
2022/10/13 12:18:32;;;;;;;7.15;1.30;;;;;;;;;;4966439;28;20449;-68
2022/10/13 12:21:01;;;;;;;10.10;1.60;;;;;;;;;;4966746;28;20093;-68
2022/10/13 12:23:28;;;;;;;9.70;1.77;;;;;;;;;;4967621;28;20058;-68
2022/10/13 12:25:59;;;;;;;10.27;1.70;;;;;;;;;;4966380;28;20055;-69
2022/10/13 12:28:27;;;;;;;6.60;1.52;;;;;;;;;;4968150;28;20055;-68
2022/10/13 12:30:55;;;;;;;6.53;1.48;;;;;;;;;;4960497;28;20606;-69
2022/10/13 12:33:24;;;;;;;6.32;0.98;;;;;;;;;;4947611;28;20085;-68
2022/10/13 12:35:53;;;;;;;7.60;1.02;;;;;;;;;;4962120;28;20082;-68
2022/10/13 12:38:22;;;;;;;6.47;1.00;;;;;;;;;;4967278;28;20150;-69
2022/10/13 12:40:49;;;;;;;7.65;1.80;;;;;;;;;;4965671;28;20043;-68
2022/10/13 12:43:19;;;;;;;8.93;1.30;;;;;;;;;;4964735;28;20050;-69
2022/10/13 12:45:46;;;;;;;8.80;1.83;;;;;;;;;;4942573;28;20054;-68
2022/10/13 12:48:33;;;;;;;10.65;1.70;;;;;;;;;;4961928;28;20054;-69
2022/10/13 12:51:14;;;;;;;6.70;1.30;;;;;;;;;;4964238;28;20159;-68
2022/10/13 12:53:42;;;;;;;8.65;1.50;;;;;;;;;;4963079;28;20097;-68
2022/10/13 12:56:19;;;;;;;10.60;1.60;;;;;;;;;;4967042;28;20046;-68
2022/10/13 12:58:46;;;;;;;10.55;1.95;;;;;;;;;;4962915;28;20524;-69
2022/10/13 13:01:30;;;;;;;4.95;0.95;;;;;;;;;;4966566;28;20053;-68
2022/10/13 13:03:57;;;;;;;;;;;;;;;;;;4966379;28;20700;-68
2022/10/13 13:06:29;;;;;;;10.02;1.50;;;;;;;;;;4962955;28;19930;-68
2022/10/13 13:09:09;;;;;;;8.05;1.33;;;;;;;;;;4964340;28;20387;-68
2022/10/13 13:11:37;;;;;;;11.30;1.38;;;;;;;;;;4963419;28;20109;-68
2022/10/13 13:14:24;;;;;;;9.20;0.90;;;;;;;;;;4966818;28;20057;-68
2022/10/13 13:17:05;;;;;;;9.45;1.15;;;;;;;;;;4963672;28;20039;-68
2022/10/13 13:19:33;;;;;;;7.50;1.52;;;;;;;;;;4963738;28;20062;-68
2022/10/13 13:22:02;;;;;;;8.00;1.50;;;;;;;;;;4966344;28;20082;-68
2022/10/13 13:24:29;;;;;;;10.98;1.50;;;;;;;;;;4964741;28;20057;-68
2022/10/13 13:26:57;;;;;;;7.60;1.15;;;;;;;;;;4942751;28;20067;-68
2022/10/13 13:29:24;;;;;;;11.57;1.40;;;;;;;;;;4963936;28;20055;-68
2022/10/13 13:31:51;;;;;;;7.72;1.35;;;;;;;;;;4963464;28;20054;-69
2022/10/13 13:34:19;;;;;;;8.10;1.10;;;;;;;;;;4957684;28;20536;-68
2022/10/13 13:36:47;;;;;;;8.30;1.45;;;;;;;;;;4965180;28;20058;-68
2022/10/13 13:39:17;;;;;;;5.93;1.15;;;;;;;;;;4965572;28;20405;-68
2022/10/13 13:41:44;;;;;;;10.13;1.55;;;;;;;;;;4959488;28;20054;-68
2022/10/13 13:44:11;;;;;;;10.18;1.50;;;;;;;;;;4965656;28;20046;-68
2022/10/13 13:46:39;;;;;;;8.07;1.52;;;;;;;;;;4965784;28;20043;-69
2022/10/13 13:49:06;;;;;;;4.93;1.52;;;;;;;;;;4965996;28;20047;-68
2022/10/13 13:51:33;;;;;;;8.75;1.50;;;;;;;;;;4966430;28;20050;-68
2022/10/13 13:54:00;;;;;;;8.18;1.38;;;;;;;;;;4965119;28;20049;-69
2022/10/13 13:56:29;;;;;;;4.90;1.05;;;;;;;;;;4965792;28;20057;-69
2022/10/13 13:58:56;;;;;;;6.68;1.23;;;;;;;;;;4964514;28;20117;-68
2022/10/13 14:01:24;;;;;;;8.80;1.55;;;;;;;;;;4964777;28;20146;-68
2022/10/13 14:03:51;;;;;;;5.90;1.02;;;;;;;;;;4964334;28;20133;-68
2022/10/13 14:06:20;;;;;;;7.78;1.17;;;;;;;;;;4965583;28;20207;-68
2022/10/13 14:08:47;;;;;;;9.60;1.10;;;;;;;;;;4964095;28;20046;-68
2022/10/13 14:11:14;;;;;;;8.13;1.30;;;;;;;;;;4965033;28;20105;-69
2022/10/13 14:13:43;;;;;;;6.47;1.35;;;;;;;;;;4962555;28;20548;-68
2022/10/13 14:16:13;;;;;;;7.32;2.20;;;;;;;;;;4962712;28;20043;-69
2022/10/13 14:18:40;;;;;;;8.75;1.70;;;;;;;;;;4962118;28;20049;-68
2022/10/13 14:21:08;;;;;;;8.88;2.08;;;;;;;;;;4962715;28;20081;-69
2022/10/13 14:23:35;;;;;;;9.05;1.95;;;;;;;;;;4964353;28;20110;-68
2022/10/13 14:26:06;;;;;;;8.30;3.08;;;;;;;;;;4965846;28;20054;-69
2022/10/13 14:28:33;;;;;;;10.55;1.67;;;;;;;;;;4965898;28;20050;-68
2022/10/13 14:31:04;;;;;;;8.35;2.60;;;;;;;;;;4964156;28;20047;-69
2022/10/13 14:33:32;;;;;;;6.57;2.30;;;;;;;;;;4966235;28;20133;-68